Flight Track Log - Related Links

Times and Time Zones

All times are in EDT time to prevent confusion due to time zone crossing. See the ASQ6177 flight status page for this flight to view local times or setup timezone preferences in your user account.

Time Position Orientation Groundspeed Altitude Reporting Facility
EDT Latitude Longitude Course Direction KTS MPH feet Rate Location/Type
Fri 09:43:44 AM 41.9478 -87.9058 254° West 161 185 36,000  Level Chicago Center
Fri 09:44:05 AM 41.9333 -87.9333 235° Southwest 171 197 2,600 -23,630 Descending Chicago TRACON
Fri 09:45:05 AM 41.9167 -88.0000 251° West 234 269 4,100 1,061 Climbing Chicago TRACON
Fri 09:46:49 AM 41.9094 -88.1456 266° West 241 277 5,500 1,554 Climbing Chicago Center
Fri 09:47:51 AM 41.9078 -88.2344 269° West 242 278 8,400 2,323 Climbing Chicago Center
Fri 09:48:53 AM 41.9047 -88.3300 268° West 255 293 10,300 1,210 Climbing Chicago Center
Fri 09:49:00 AM 41.8243 -88.5244 254° West  Level FlightAware Approximate
Fri 09:49:55 AM 41.8911 -88.4417 261° West 302 348 10,900  Level Chicago Center
Fri 09:50:57 AM 41.8608 -88.5578 251° West 329 379 11,800 1,065 Climbing Chicago Center
Fri 09:51:59 AM 41.8236 -88.7072 252° West 353 406 13,100 1,161 Climbing Chicago Center
Fri 09:53:01 AM 41.7925 -88.8325 252° West 357 411 14,200 1,210 Climbing Chicago Center
Fri 09:54:03 AM 41.7606 -88.9581 251° West 359 413 15,600 1,122 Climbing Chicago Center
Fri 09:55:04 AM 41.7297 -89.0803 251° West 351 404 16,500 927 Climbing Chicago Center
Fri 09:56:06 AM 41.6983 -89.2075 252° West 360 414 17,500 871 Climbing Chicago Center
Fri 09:57:08 AM 41.6589 -89.3558 250° West 356 410 18,300 871 Climbing Chicago Center
Fri 09:58:10 AM 41.6261 -89.4817 251° West 359 413 19,300 919 Climbing Chicago Center
Fri 09:59:12 AM 41.5969 -89.6011 252° West 360 414 20,200 968 Climbing Chicago Center
Fri 10:00:14 AM 41.5631 -89.7275 250° West 363 418 21,300 968 Climbing Chicago Center
Fri 10:01:16 AM 41.5306 -89.8553 251° West 364 419 22,200 1,065 Climbing Chicago Center
Fri 10:02:18 AM 41.4917 -90.0050 251° West 360 414 23,500 1,113 Climbing Chicago Center
Fri 10:03:20 AM 41.4583 -90.1286 250° West 357 411 24,500 968 Climbing Chicago Center
Fri 10:04:22 AM 41.4267 -90.2489 251° West 349 402 25,500 919 Climbing Chicago Center
Fri 10:05:24 AM 41.3944 -90.3692 250° West 347 399 26,400 726 Climbing Chicago Center
Fri 10:06:26 AM 41.3636 -90.4861 251° West 340 391 27,000 290 Climbing Chicago Center
Fri 10:07:28 AM 41.3217 -90.6333 249° West 358 412 27,000  Level Chicago Center
Fri 10:08:30 AM 41.2594 -90.7439 233° Southwest 376 433 27,000  Level Chicago Center
Fri 10:09:32 AM 41.1961 -90.8511 232° Southwest 373 429 27,000  Level Chicago Center
Fri 10:10:34 AM 41.1294 -90.9631 232° Southwest 385 443 27,000  Level Chicago Center
Fri 10:11:36 AM 41.0636 -91.0744 232° Southwest 386 444 27,000 581 Level Chicago Center
Fri 10:12:38 AM 40.9986 -91.1828 232° Southwest 380 437 28,200 1,258 Climbing Chicago Center
Fri 10:13:40 AM 40.9247 -91.3058 232° Southwest 357 411 29,600 1,210 Climbing Chicago Center
Fri 10:14:42 AM 40.8714 -91.3947 232° Southwest 343 395 30,700 1,210 Climbing Chicago Center
Fri 10:15:44 AM 40.8136 -91.4908 232° Southwest 337 388 32,100 1,403 Climbing Chicago Center
Fri 10:16:46 AM 40.7461 -91.6022 231° Southwest 328 377 33,600 1,210 Climbing Chicago Center
Fri 10:17:48 AM 40.6892 -91.6944 231° Southwest 327 376 34,600 968 Climbing Chicago Center
Fri 10:18:50 AM 40.6331 -91.7872 231° Southwest 326 375 35,600 672 Climbing Chicago Center
Fri 10:19:53 AM 40.5764 -91.8792 231° Southwest 326 375 36,000 192 Climbing Chicago Center
Fri 10:20:55 AM 40.5172 -91.9789 232° Southwest 344 396 36,000  Level Chicago Center
Fri 10:21:57 AM 40.4397 -92.1022 230° Southwest 365 420 36,000  Level Chicago Center
Fri 10:22:59 AM 40.3739 -92.2075 231° Southwest 374 430 36,000  Level Chicago Center
Fri 10:24:01 AM 40.3172 -92.3200 237° Southwest 372 428 36,000  Level Chicago Center
Fri 10:25:03 AM 40.2675 -92.4367 241° Southwest 367 422 36,000  Level Chicago Center
Fri 10:26:15 AM 40.2100 -92.5675 240° Southwest 364 419 36,000  Level Kansas City Center
Fri 10:27:15 AM 40.1558 -92.6969 241° Southwest 364 419 36,000  Level Kansas City Center
Fri 10:28:19 AM 40.1081 -92.8061 240° Southwest 362 417 36,000  Level Kansas City Center
Fri 10:29:20 AM 40.0583 -92.9231 241° Southwest 363 418 36,000  Level Kansas City Center
Fri 10:31:15 AM 39.9594 -93.1511 241° Southwest 363 418 36,000  Level Chicago Center
Fri 10:32:25 AM 39.9000 -93.2883 241° Southwest 365 420 36,000  Level Kansas City Center
Fri 10:33:26 AM 39.8500 -93.4025 240° Southwest 365 420 36,000  Level Kansas City Center
Fri 10:34:26 AM 39.7989 -93.5158 240° Southwest 366 421 36,000  Level Kansas City Center
Fri 10:35:30 AM 39.7497 -93.6308 241° Southwest 367 422 36,000  Level Kansas City Center
Fri 10:36:31 AM 39.6922 -93.7597 240° Southwest 367 422 36,000  Level Kansas City Center
Fri 10:37:31 AM 39.6442 -93.8703 241° Southwest 366 421 36,000  Level Kansas City Center
Fri 10:38:32 AM 39.5958 -93.9800 240° Southwest 367 422 36,000  Level Kansas City Center
Fri 10:39:33 AM 39.5389 -94.1069 240° Southwest 366 421 36,000  Level Kansas City Center
Fri 10:40:37 AM 39.4894 -94.2158 240° Southwest 365 420 36,000  Level Kansas City Center
Fri 10:41:38 AM 39.4331 -94.3425 240° Southwest 363 418 36,000  Level Kansas City Center
Fri 10:42:39 AM 39.3847 -94.4503 240° Southwest 362 417 36,000  Level Kansas City Center
Fri 10:43:42 AM 39.3358 -94.5581 240° Southwest 363 418 36,000  Level Kansas City Center
Fri 10:44:42 AM 39.2786 -94.6819 239° Southwest 362 417 36,000  Level Kansas City Center
Fri 10:45:45 AM 39.2294 -94.7897 240° Southwest 361 415 36,000  Level Kansas City Center
Fri 10:46:46 AM 39.1714 -94.9164 239° Southwest 363 418 36,000  Level Kansas City Center
Fri 10:47:48 AM 39.1211 -95.0247 239° Southwest 364 419 36,000 -98 Level Kansas City Center
Fri 10:48:49 AM 39.0631 -95.1506 239° Southwest 368 423 35,800 -934 Descending Kansas City Center
Fri 10:49:50 AM 39.0122 -95.2603 239° Southwest 357 411 34,100 -1,306 Descending Kansas City Center
Fri 10:50:53 AM 38.9675 -95.3575 239° Southwest 333 383 33,100 -919 Descending Kansas City Center
Fri 10:51:54 AM 38.9211 -95.4564 239° Southwest 335 386 32,200 -984 Descending Kansas City Center
Fri 10:52:55 AM 38.8647 -95.5783 239° Southwest 356 410 31,100 -1,016 Descending Kansas City Center
Fri 10:53:58 AM 38.8122 -95.6897 239° Southwest 376 433 30,100 -1,016 Descending Kansas City Center
Fri 10:54:59 AM 38.7506 -95.8200 239° Southwest 382 440 29,000 -1,016 Descending Kansas City Center
Fri 10:56:02 AM 38.7008 -95.9294 240° Southwest 374 430 28,000 -1,016 Descending Kansas City Center
Fri 10:57:03 AM 38.6400 -96.0539 238° Southwest 370 426 26,900 -1,033 Descending Kansas City Center
Fri 10:58:04 AM 38.5875 -96.1619 238° Southwest 373 429 25,900 -919 Descending Kansas City Center
Fri 10:59:07 AM 38.5367 -96.2703 239° Southwest 371 427 25,000 -1,016 Descending Kansas City Center
Fri 11:00:08 AM 38.4753 -96.3964 238° Southwest 374 430 23,800 -1,065 Descending Kansas City Center
Fri 11:01:11 AM 38.4197 -96.5114 238° Southwest 375 432 22,800 -1,366 Descending Kansas City Center
Fri 11:02:11 AM 38.3661 -96.6236 239° Southwest 372 428 21,000 -2,081 Descending Kansas City Center
Fri 11:03:15 AM 38.3144 -96.7311 239° Southwest 360 414 18,500 -2,341 Descending Kansas City Center
Fri 11:03:33 AM 38.2917 -96.7714 234° Southwest 349 402 17,800 -1,900 Descending Kansas City Center
Fri 11:04:15 AM 38.2656 -96.8328 242° Southwest 339 390 16,600 -1,917 Descending Kansas City Center
Fri 11:04:45 AM 38.2328 -96.8958 237° Southwest 325 374 15,500 -1,770 Descending Kansas City Center
Fri 11:05:16 AM 38.2172 -96.9292 239° Southwest 326 375 14,800 -1,377 Descending Kansas City Center
Fri 11:05:46 AM 38.1822 -96.9786 228° Southwest 302 348 14,100 -1,048 Descending Kansas City Center
Fri 11:06:19 AM 38.1578 -96.9994 214° Southwest 295 339 13,700 -1,000 Descending Kansas City Center
Fri 11:06:46 AM 38.1186 -97.0342 215° Southwest 261 300 13,100 -1,180 Descending Kansas City Center
Fri 11:07:20 AM 38.0856 -97.0636 215° Southwest 266 306 12,500 -1,082 Descending Kansas City Center
Fri 11:07:47 AM 38.0586 -97.0864 214° Southwest 256 295 12,000 -1,238 Descending Kansas City Center
Fri 11:08:23 AM 38.0286 -97.1117 214° Southwest 248 285 11,200 -1,522 Descending Kansas City Center
Fri 11:08:54 AM 38.0025 -97.1353 215° Southwest 231 266 10,300 -1,742 Descending Kansas City Center
Fri 11:09:25 AM 37.9828 -97.1661 231° Southwest 229 264 9,400 -1,967 Descending Kansas City Center
Fri 11:09:55 AM 37.9547 -97.2039 227° Southwest 244 281 8,300 -2,637 Descending Kansas City Center
Fri 11:10:56 AM 37.9108 -97.2692 230° Southwest 242 278 5,400 -2,426 Descending Kansas City Center
Fri 11:11:29 AM 37.8942 -97.2972 233° Southwest 244 281 4,500 -1,400 Descending Kansas City Center
Fri 11:11:56 AM 37.8658 -97.3239 217° Southwest 220 253 4,000 -900 Descending Kansas City Center
Fri 11:12:29 AM 37.8442 -97.3347 202° Southwest 228 262 3,600 -885 Descending Kansas City Center
Fri 11:12:57 AM 37.8133 -97.3481 199° South 189 217 3,100 -563 Descending Kansas City Center
Fri 11:13:33 AM 37.7925 -97.3578 200° South 206 237 3,000 -100 Descending Kansas City Center
Fri 11:13:57 AM 37.7633 -97.3717 201° Southwest 196 226 3,000 -100 Level Kansas City Center
Fri 11:14:33 AM 37.7364 -97.3833 199° South 191 220 2,900 -556 Descending Kansas City Center
Fri 11:14:51 AM 37.7269 -97.3881 202° Southwest 137 158 2,500 -656 Descending Kansas City Center
Fri 11:15:37 AM 37.7050 -97.3986 201° Southwest 150 173 2,200 -353 Descending Kansas City Center
Fri 11:15:59 AM 37.6928 -97.4039 199° South 116 133 2,100 -590 Descending Kansas City Center
Fri 11:16:38 AM 37.6717 -97.4131 199° South 132 152 1,600 -769 Descending Kansas City Center
Fri 11:18:00 AM 37.6499 -97.4331 142° Southeast  Level Estimated
Fri 11:25:00 AM 37.6499 -97.4331 142° Southeast  Level Estimated
Fri 11:26:00 AM 37.6499 -97.4331 142° Southeast  Level Estimated
Fri 11:27:00 AM 37.6499 -97.4331 142° Southeast  Level Estimated
Fri 11:28:00 AM 37.6499 -97.4331 142° Southeast  Level Estimated

Login

Don't have an account? Register now (free) for customized features, flight alerts, and more!